Weather at Denizli Regional Directorate of Forestry Helicopter Heliport

Public forecast

Using degrees Celsius for public forecast. Weather courtesy of forecast.io.

Closest aviation weather report (METAR) to Denizli Regional Directorate of Forestry Helicopter Heliport

Report is more than 6 hours old.

Closest report is Çardak Airport, 29.1 nm (54.0 km) E.

2022/11/14 14:50 (retrieved 2 years ago)

LTAY 141450Z 29001KT CAVOK 13/M03 Q1019

Closest aviation forecast (TAF) to Denizli Regional Directorate of Forestry Helicopter Heliport

Forecast is more than 12 hours old.

Closest forecast is Çardak Airport, 29.1 nm (54.0 km) E.

2023/02/22 18:03 (retrieved 1 year ago)

TAF LTAY 221640Z 2218/2318 VRB02KT CAVOK